createdAt,value
2023-01-21T00:01:31.686Z,34.83
2023-01-21T00:06:36.298Z,35.50
2023-01-21T00:11:39.218Z,33.97
2023-01-21T00:16:42.134Z,34.40
2023-01-21T00:21:46.657Z,34.80
2023-01-21T00:26:49.728Z,33.83
2023-01-21T00:31:52.619Z,34.17
2023-01-21T00:36:56.864Z,33.73
2023-01-21T00:41:59.735Z,36.37
2023-01-21T00:47:02.568Z,34.40
2023-01-21T00:52:07.404Z,34.10
2023-01-21T00:57:10.452Z,34.33
2023-01-21T01:02:13.624Z,33.80
2023-01-21T01:07:17.868Z,34.40
2023-01-21T01:12:20.803Z,34.17
2023-01-21T01:17:23.686Z,34.30
2023-01-21T01:22:27.910Z,34.43
2023-01-21T01:27:31.356Z,34.50
2023-01-21T01:32:34.294Z,34.70
2023-01-21T01:37:38.534Z,34.43
2023-01-21T01:42:41.455Z,34.30
2023-01-21T01:47:47.174Z,34.93
2023-01-21T01:52:51.406Z,34.20
2023-01-21T01:57:56.157Z,36.47
2023-01-21T02:03:17.101Z,33.33
2023-01-21T02:08:21.940Z,34.47
2023-01-21T02:13:27.192Z,34.27
2023-01-21T02:18:38.217Z,34.97
2023-01-21T02:24:11.710Z,33.83
2023-01-21T02:29:44.936Z,33.50
2023-01-21T02:34:53.467Z,33.17
2023-01-21T02:40:11.545Z,33.47
2023-01-21T02:45:26.199Z,33.67
2023-01-21T02:50:33.508Z,34.60
2023-01-21T02:55:38.326Z,33.30
2023-01-21T03:00:51.987Z,33.90
2023-01-21T03:06:31.617Z,33.87
2023-01-21T03:11:34.591Z,33.93
2023-01-21T03:16:58.163Z,34.17
2023-01-21T03:22:06.167Z,33.97
2023-01-21T03:27:10.729Z,33.47
2023-01-21T03:32:16.796Z,33.83
2023-01-21T03:37:26.780Z,34.20
2023-01-21T03:42:30.308Z,33.63
2023-01-21T03:47:36.029Z,34.07
2023-01-21T03:52:42.893Z,33.40
2023-01-21T03:57:45.999Z,34.40
2023-01-21T04:02:48.944Z,33.70
2023-01-21T04:07:53.130Z,36.53
2023-01-21T04:12:59.114Z,34.23
2023-01-21T04:18:01.935Z,35.13
2023-01-21T04:23:06.119Z,33.13
2023-01-21T04:28:08.960Z,33.07
2023-01-21T04:33:11.810Z,33.17
2023-01-21T04:38:16.107Z,33.73
2023-01-21T04:43:21.323Z,33.17
2023-01-21T04:48:24.299Z,38.78
2023-01-21T04:53:28.579Z,33.57
2023-01-21T04:58:31.451Z,34.60
2023-01-21T05:03:34.356Z,33.30
2023-01-21T05:08:38.545Z,33.77
2023-01-21T05:13:41.355Z,33.53
2023-01-21T05:18:46.701Z,33.67
2023-01-21T05:23:51.071Z,33.57
2023-01-21T05:28:53.908Z,34.50
2023-01-21T05:33:57.973Z,35.27
2023-01-21T05:39:02.183Z,34.00
2023-01-21T05:44:05.221Z,34.67
2023-01-21T05:49:08.087Z,34.17
2023-01-21T05:54:12.370Z,34.33
2023-01-21T05:59:15.225Z,34.70
2023-01-21T06:04:18.070Z,34.63
2023-01-21T06:09:22.387Z,33.87
2023-01-21T06:14:25.258Z,33.97
2023-01-21T06:19:28.098Z,33.00
2023-01-21T06:24:32.310Z,32.73
2023-01-21T06:29:35.218Z,34.30
2023-01-21T06:34:39.202Z,33.80
2023-01-21T06:39:43.383Z,33.13
2023-01-21T06:44:46.587Z,37.40
2023-01-21T06:49:49.441Z,32.60
2023-01-21T06:54:53.653Z,35.67
2023-01-21T06:59:56.480Z,38.80
2023-01-21T07:04:59.445Z,38.60
2023-01-21T07:10:03.676Z,36.97
2023-01-21T07:15:08.072Z,35.73
2023-01-21T07:20:12.321Z,35.70
2023-01-21T07:25:19.146Z,37.00
2023-01-21T07:30:22.565Z,35.93
2023-01-21T07:35:25.459Z,36.90
2023-01-21T07:40:29.710Z,35.60
2023-01-21T07:45:32.816Z,37.07
2023-01-21T07:50:36.088Z,35.60
2023-01-21T07:55:40.298Z,35.97
2023-01-21T08:00:43.219Z,37.03
2023-01-21T08:05:47.508Z,38.83
2023-01-21T08:10:54.523Z,35.47
2023-01-21T08:15:58.387Z,35.77
2023-01-21T08:21:01.372Z,35.07
2023-01-21T08:26:06.752Z,42.70
2023-01-21T08:31:12.363Z,43.90
2023-01-21T08:36:15.570Z,37.47
2023-01-21T08:41:19.739Z,39.17
2023-01-21T08:46:22.611Z,43.87
2023-01-21T08:51:25.570Z,42.07
2023-01-21T08:56:29.781Z,42.27
2023-01-21T09:01:36.089Z,45.50
2023-01-21T09:06:39.022Z,41.43
2023-01-21T09:11:43.295Z,46.40
2023-01-21T09:16:48.670Z,44.63
2023-01-21T09:21:55.495Z,48.37
2023-01-21T09:26:59.735Z,47.93
2023-01-21T09:32:05.170Z,48.83
2023-01-21T09:37:08.026Z,48.53
2023-01-21T09:42:19.232Z,47.40
2023-01-21T09:47:25.489Z,46.13
2023-01-21T09:52:34.331Z,45.10
2023-01-21T09:58:04.098Z,47.07
2023-01-21T10:03:18.586Z,43.87
2023-01-21T10:08:30.008Z,45.23
2023-01-21T10:13:43.724Z,44.33
2023-01-21T10:18:51.372Z,44.63
2023-01-21T10:23:59.717Z,43.03
2023-01-21T10:29:04.608Z,42.57
2023-01-21T10:34:13.450Z,39.77
2023-01-21T10:39:26.212Z,44.83
2023-01-21T10:44:39.943Z,42.60
2023-01-21T10:49:52.640Z,37.53
2023-01-21T10:55:01.700Z,38.87
2023-01-21T11:00:18.275Z,43.03
2023-01-21T11:05:21.714Z,42.10
2023-01-21T11:10:27.083Z,43.43
2023-01-21T11:15:34.291Z,42.83
2023-01-21T11:20:42.117Z,39.07
2023-01-21T11:25:45.164Z,37.40
2023-01-21T11:30:51.591Z,37.20
2023-01-21T11:35:56.157Z,39.90
2023-01-21T11:41:10.027Z,37.57
2023-01-21T11:46:35.465Z,38.23
2023-01-21T11:51:40.328Z,41.47
2023-01-21T11:57:03.308Z,37.10
2023-01-21T12:02:18.555Z,40.50
2023-01-21T12:07:23.607Z,45.07
2023-01-21T12:12:35.200Z,41.73
2023-01-21T12:17:52.476Z,41.37
2023-01-21T12:23:24.235Z,38.60
2023-01-21T12:28:53.786Z,38.90
2023-01-21T12:34:03.124Z,35.60
2023-01-21T12:39:14.906Z,35.83
2023-01-21T12:44:26.698Z,36.53
2023-01-21T12:49:47.956Z,40.23
2023-01-21T12:54:59.653Z,39.97
2023-01-21T13:00:15.542Z,41.00
2023-01-21T13:05:26.803Z,38.40
2023-01-21T13:10:35.252Z,41.90
2023-01-21T13:15:41.320Z,41.40
2023-01-21T13:20:50.573Z,38.93
2023-01-21T13:26:04.036Z,38.00
2023-01-21T13:31:18.291Z,45.47
2023-01-21T13:36:38.833Z,41.33
2023-01-21T13:41:53.207Z,43.17
2023-01-21T13:47:05.404Z,45.90
2023-01-21T13:52:16.011Z,43.50
2023-01-21T13:57:48.331Z,45.00
2023-01-21T14:03:02.800Z,40.57
2023-01-21T14:08:14.310Z,45.47
2023-01-21T14:13:39.088Z,42.63
2023-01-21T14:19:11.019Z,42.60
2023-01-21T14:24:38.074Z,47.83
2023-01-21T14:29:46.577Z,38.57
2023-01-21T14:35:03.819Z,43.87
2023-01-21T14:40:17.949Z,48.43
2023-01-21T14:45:25.684Z,39.30
2023-01-21T14:50:51.817Z,44.33
2023-01-21T14:56:16.167Z,49.47
2023-01-21T15:01:38.019Z,46.10
2023-01-21T15:06:47.703Z,46.23
2023-01-21T15:11:56.437Z,41.37
2023-01-21T15:16:59.362Z,43.17
2023-01-21T15:22:19.298Z,42.57
2023-01-21T15:27:25.736Z,46.20
2023-01-21T15:32:30.962Z,46.83
2023-01-21T15:37:38.509Z,46.23
2023-01-21T15:42:51.046Z,40.87
2023-01-21T15:48:13.264Z,42.83
2023-01-21T15:53:39.599Z,40.20
2023-01-21T15:58:53.444Z,45.57
2023-01-21T16:04:09.092Z,41.00
2023-01-21T16:09:31.908Z,39.83
2023-01-21T16:14:52.403Z,46.87
2023-01-21T16:19:58.156Z,40.00
2023-01-21T16:25:06.546Z,41.70
2023-01-21T16:30:15.756Z,45.23
2023-01-21T16:35:19.150Z,40.17
2023-01-21T16:40:30.353Z,39.67
2023-01-21T16:45:55.808Z,42.33
2023-01-21T16:50:59.080Z,41.73
2023-01-21T16:56:01.969Z,41.93
2023-01-21T17:01:11.597Z,38.80
2023-01-21T17:06:21.178Z,43.93
2023-01-21T17:11:24.468Z,41.13
2023-01-21T17:16:31.053Z,43.73
2023-01-21T17:21:37.256Z,44.17
2023-01-21T17:26:44.757Z,42.37
2023-01-21T17:31:56.101Z,35.40
2023-01-21T17:36:59.509Z,42.93
2023-01-21T17:42:04.543Z,51.90
2023-01-21T17:47:22.231Z,49.42
2023-01-21T17:52:25.339Z,41.10
2023-01-21T17:57:36.717Z,40.20
2023-01-21T18:02:40.960Z,37.80
2023-01-21T18:07:44.076Z,40.37
2023-01-21T18:12:46.944Z,37.73
2023-01-21T18:17:59.384Z,42.17
2023-01-21T18:23:02.352Z,43.30
2023-01-21T18:28:07.353Z,41.90
2023-01-21T18:33:25.018Z,38.77
2023-01-21T18:38:29.748Z,40.57
2023-01-21T18:43:33.530Z,38.77
2023-01-21T18:48:37.751Z,39.30
2023-01-21T18:53:40.672Z,40.63
2023-01-21T18:58:44.036Z,39.57
2023-01-21T19:03:48.323Z,44.17
2023-01-21T19:08:59.629Z,39.23
2023-01-21T19:14:04.659Z,40.13
2023-01-21T19:19:12.069Z,41.23
2023-01-21T19:24:14.989Z,42.13
2023-01-21T19:29:22.754Z,37.50
2023-01-21T19:34:27.114Z,39.50
2023-01-21T19:39:32.729Z,40.57
2023-01-21T19:44:35.632Z,40.63
2023-01-21T19:49:39.951Z,39.50
2023-01-21T19:54:42.832Z,38.60
2023-01-21T19:59:46.449Z,40.27
2023-01-21T20:04:50.845Z,39.87
2023-01-21T20:09:53.836Z,41.10
2023-01-21T20:14:56.716Z,39.90
2023-01-21T20:20:00.960Z,44.47
2023-01-21T20:25:39.014Z,39.83
2023-01-21T20:30:41.941Z,40.20
2023-01-21T20:35:48.480Z,38.37
2023-01-21T20:40:51.378Z,39.43
2023-01-21T20:45:55.723Z,39.50
2023-01-21T20:51:00.237Z,40.13
2023-01-21T20:56:09.979Z,37.10
2023-01-21T21:01:13.595Z,39.67
2023-01-21T21:06:20.162Z,40.27
2023-01-21T21:11:23.171Z,39.40
2023-01-21T21:16:29.099Z,39.73
2023-01-21T21:21:33.438Z,38.43
2023-01-21T21:26:37.963Z,38.27
2023-01-21T21:31:40.951Z,38.80
2023-01-21T21:36:46.100Z,39.40
2023-01-21T21:42:06.364Z,38.53
2023-01-21T21:47:39.774Z,37.03
2023-01-21T21:52:43.977Z,38.50
2023-01-21T21:57:46.824Z,38.63
2023-01-21T22:02:49.797Z,37.67
2023-01-21T22:07:54.060Z,38.60
2023-01-21T22:12:56.912Z,37.67
2023-01-21T22:17:59.740Z,38.70
2023-01-21T22:23:03.925Z,37.53
2023-01-21T22:28:06.818Z,36.80
2023-01-21T22:33:10.543Z,37.87
2023-01-21T22:38:14.891Z,38.00
2023-01-21T22:43:20.858Z,36.73
2023-01-21T22:48:23.967Z,35.97
2023-01-21T22:53:29.207Z,36.40
2023-01-21T22:58:34.357Z,36.27
2023-01-21T23:03:38.511Z,36.53
2023-01-21T23:08:42.856Z,36.07
2023-01-21T23:13:46.725Z,36.03
2023-01-21T23:18:49.982Z,35.77
2023-01-21T23:24:25.317Z,35.77
2023-01-21T23:29:28.174Z,35.93
2023-01-21T23:34:31.064Z,35.27
2023-01-21T23:39:35.497Z,35.70
2023-01-21T23:44:38.963Z,35.30
2023-01-21T23:49:41.855Z,37.17
2023-01-21T23:54:46.229Z,36.87
2023-01-21T23:59:49.249Z,36.47
